Time;durP1;ratioP1;P1;durP2;ratioP2;P2;SDS_P1;SDS_P2;PMS_P1;PMS_P2;Temp;Humidity;BMP_temperature;BMP_pressure;BME280_temperature;BME280_humidity;BME280_pressure;Samples;Min_cycle;Max_cycle;Signal;HPM_P1;HPM_P2
2022/05/14 00:01:39;;;;;;;;;;;12.90;99.90;;;;;;4919539;29;19969;-70
2022/05/14 00:04:07;;;;;;;;;;;13.10;99.90;;;;;;4935286;29;19927;-70
2022/05/14 00:06:32;;;;;;;;;;;12.90;99.90;;;;;;4935831;29;19989;-70
2022/05/14 00:09:05;;;;;;;;;;;12.90;99.90;;;;;;4936680;29;20370;-70
2022/05/14 00:14:15;;;;;;;;;;;12.70;99.90;;;;;;4936756;29;20282;-70
2022/05/14 00:16:40;;;;;;;;;;;12.60;99.90;;;;;;4936541;29;20006;-70
2022/05/14 00:19:06;;;;;;;;;;;12.50;99.90;;;;;;4936522;29;19934;-70
2022/05/14 00:21:35;;;;;;;;;;;12.70;99.90;;;;;;4937212;29;19923;-70
2022/05/14 00:24:08;;;;;;;;;;;12.40;99.90;;;;;;4936104;29;19957;-70
2022/05/14 00:26:35;;;;;;;;;;;12.40;99.90;;;;;;4935541;29;19923;-72
2022/05/14 00:29:01;;;;;;;;;;;12.40;99.90;;;;;;4918816;29;19922;-70
2022/05/14 00:31:26;;;;;;;;;;;12.40;99.90;;;;;;4919326;29;20429;-70
2022/05/14 00:33:52;;;;;;;;;;;12.40;99.90;;;;;;4919799;29;20485;-70
2022/05/14 00:36:17;;;;;;;;;;;12.40;99.90;;;;;;4936794;29;20006;-70
2022/05/14 00:38:43;;;;;;;;;;;12.40;99.90;;;;;;4920178;29;20290;-71
2022/05/14 00:41:11;;;;;;;;;;;12.30;99.90;;;;;;4936075;29;19923;-70
2022/05/14 00:43:49;;;;;;;;;;;12.30;99.90;;;;;;4936236;29;19923;-70
2022/05/14 00:46:20;;;;;;;;;;;12.30;99.90;;;;;;4918179;29;19945;-71
2022/05/14 00:48:47;;;;;;;;;;;12.30;99.90;;;;;;4919522;29;20809;-72
2022/05/14 00:51:14;;;;;;;;;;;12.30;99.90;;;;;;4936399;29;19926;-70
2022/05/14 00:53:44;;;;;;;;;;;12.30;99.90;;;;;;4935919;29;19957;-70
2022/05/14 00:56:13;;;;;;;;;;;12.40;99.90;;;;;;4918785;29;20360;-70
2022/05/14 00:58:44;;;;;;;;;;;12.40;99.90;;;;;;4935746;29;19930;-70
2022/05/14 01:01:10;;;;;;;;;;;12.30;99.90;;;;;;4918609;29;19930;-70
2022/05/14 01:03:36;;;;;;;;;;;12.30;99.90;;;;;;4935714;29;20371;-70
2022/05/14 01:06:03;;;;;;;;;;;12.30;99.90;;;;;;4919473;29;19947;-70
2022/05/14 01:08:29;;;;;;;;;;;12.30;99.90;;;;;;4935738;29;19923;-70
2022/05/14 01:10:55;;;;;;;;;;;12.20;99.90;;;;;;4935948;29;19935;-71
2022/05/14 01:13:20;;;;;;;;;;;12.20;99.90;;;;;;4936271;29;19922;-70
2022/05/14 01:15:48;;;;;;;;;;;12.10;99.90;;;;;;4935345;29;20013;-71
2022/05/14 01:18:15;;;;;;;;;;;12.10;99.90;;;;;;4918243;29;20329;-71
2022/05/14 01:20:41;;;;;;;;;;;12.00;99.90;;;;;;4935122;29;19923;-71
2022/05/14 01:23:26;;;;;;;;;;;11.90;99.90;;;;;;4920136;29;19929;-71
2022/05/14 01:28:45;;;;;;;;;;;11.80;99.90;;;;;;4919474;29;19927;-70
2022/05/14 01:31:11;;;;;;;;;;;11.80;99.90;;;;;;4935040;29;19930;-70
2022/05/14 01:33:36;;;;;;;;;;;11.70;99.90;;;;;;4934715;29;19918;-70
2022/05/14 01:36:06;;;;;;;;;;;11.70;99.90;;;;;;4916957;29;20041;-69
2022/05/14 01:38:33;;;;;;;;;;;11.60;99.90;;;;;;4917859;29;19962;-70
2022/05/14 01:40:58;;;;;;;;;;;11.50;99.90;;;;;;4918303;29;19923;-70
2022/05/14 01:43:24;;;;;;;;;;;11.40;99.90;;;;;;4916549;29;20358;-70
2022/05/14 01:45:50;;;;;;;;;;;11.40;99.90;;;;;;4918301;29;19927;-70
2022/05/14 01:48:16;;;;;;;;;;;11.40;99.90;;;;;;4937138;29;19922;-71
2022/05/14 01:50:44;;;;;;;;;;;11.30;99.90;;;;;;4938460;29;20377;-70
2022/05/14 01:53:10;;;;;;;;;;;11.70;99.90;;;;;;4921040;29;20383;-70
2022/05/14 01:55:36;;;;;;;;;;;11.20;99.90;;;;;;4938548;29;19946;-71
2022/05/14 01:58:36;;;;;;;;;;;11.10;99.90;;;;;;4937483;29;19937;-70
2022/05/14 02:00:50;;;;;;;;;;;11.10;99.90;;;;;;4938517;29;20276;-70
2022/05/14 02:03:16;;;;;;;;;;;11.10;99.90;;;;;;4938200;29;19938;-73
2022/05/14 02:05:41;;;;;;;;;;;11.00;99.90;;;;;;4938575;29;20281;-71
2022/05/14 02:08:07;;;;;;;;;;;10.90;99.90;;;;;;4938848;29;19922;-71
2022/05/14 02:10:33;;;;;;;;;;;10.80;99.90;;;;;;4939257;29;20282;-71
2022/05/14 02:12:58;;;;;;;;;;;10.80;99.90;;;;;;4940258;29;20001;-71
2022/05/14 02:15:24;;;;;;;;;;;10.80;99.90;;;;;;4940918;29;19923;-71
2022/05/14 02:17:50;;;;;;;;;;;10.60;99.90;;;;;;4939432;29;19927;-71
2022/05/14 02:20:19;;;;;;;;;;;10.50;99.90;;;;;;4920996;29;20363;-70
2022/05/14 02:22:44;;;;;;;;;;;10.40;99.90;;;;;;4938204;29;20263;-73
2022/05/14 02:25:10;;;;;;;;;;;10.40;99.90;;;;;;4921350;29;19929;-71
2022/05/14 02:27:36;;;;;;;;;;;10.40;99.90;;;;;;4940199;29;20362;-71
2022/05/14 02:30:02;;;;;;;;;;;10.40;99.90;;;;;;4940441;29;19970;-71
2022/05/14 02:32:27;;;;;;;;;;;10.50;99.90;;;;;;4939244;29;20401;-71
2022/05/14 02:34:53;;;;;;;;;;;10.40;99.90;;;;;;4939086;29;20426;-71
2022/05/14 02:37:20;;;;;;;;;;;10.40;99.90;;;;;;4939182;29;20374;-71
2022/05/14 02:39:48;;;;;;;;;;;10.40;99.90;;;;;;4937017;29;19926;-70
2022/05/14 02:42:14;;;;;;;;;;;10.20;99.90;;;;;;4920570;29;19926;-70
2022/05/14 02:44:40;;;;;;;;;;;10.10;99.90;;;;;;4922473;29;19922;-71
2022/05/14 02:47:05;;;;;;;;;;;10.10;99.90;;;;;;4938969;29;20670;-71
2022/05/14 02:49:31;;;;;;;;;;;10.00;99.90;;;;;;4938719;29;19923;-71
2022/05/14 02:51:57;;;;;;;;;;;10.00;99.90;;;;;;4937790;29;20370;-71
2022/05/14 02:54:22;;;;;;;;;;;10.00;99.90;;;;;;4936649;29;19923;-70
2022/05/14 02:56:48;;;;;;;;;;;10.00;99.90;;;;;;4939551;29;19930;-72
2022/05/14 02:59:15;;;;;;;;;;;10.00;99.90;;;;;;4918733;29;19930;-70
2022/05/14 03:01:47;;;;;;;;;;;10.00;99.90;;;;;;4937929;29;19929;-71
2022/05/14 03:04:17;;;;;;;;;;;10.00;99.90;;;;;;4920726;29;19933;-71
2022/05/14 03:06:42;;;;;;;;;;;10.00;99.90;;;;;;4938707;29;19923;-71
2022/05/14 03:09:08;;;;;;;;;;;9.90;99.90;;;;;;4938275;29;20022;-71
2022/05/14 03:11:37;;;;;;;;;;;10.00;99.90;;;;;;4939141;29;19926;-71
2022/05/14 03:14:02;;;;;;;;;;;9.90;99.90;;;;;;4937107;29;20154;-71
2022/05/14 03:16:28;;;;;;;;;;;9.90;99.90;;;;;;4939436;29;19926;-71
2022/05/14 03:18:54;;;;;;;;;;;9.90;99.90;;;;;;4938438;29;19929;-71
2022/05/14 03:21:20;;;;;;;;;;;9.90;99.90;;;;;;4938360;29;19997;-70
2022/05/14 03:23:45;;;;;;;;;;;9.90;99.90;;;;;;4920069;29;20390;-71
2022/05/14 03:26:11;;;;;;;;;;;9.90;99.90;;;;;;4937040;29;19923;-71
2022/05/14 03:28:36;;;;;;;;;;;9.90;99.90;;;;;;4936393;29;19933;-71
2022/05/14 03:31:02;;;;;;;;;;;9.90;99.90;;;;;;4937069;29;19926;-71
2022/05/14 03:33:27;;;;;;;;;;;9.90;99.90;;;;;;4936786;29;19950;-71
2022/05/14 03:35:53;;;;;;;;;;;10.00;99.90;;;;;;4937200;29;20302;-72
2022/05/14 03:38:18;;;;;;;;;;;9.80;99.90;;;;;;4938715;29;20367;-71
2022/05/14 03:40:44;;;;;;;;;;;9.80;99.90;;;;;;4921898;29;20036;-71
2022/05/14 03:43:09;;;;;;;;;;;9.80;99.90;;;;;;4918550;29;19926;-71
2022/05/14 03:45:35;;;;;;;;;;;9.80;99.90;;;;;;4919718;29;19922;-70
2022/05/14 03:48:00;;;;;;;;;;;9.80;99.90;;;;;;4936384;29;19923;-70
2022/05/14 03:50:26;;;;;;;;;;;9.80;99.90;;;;;;4935736;29;20056;-70
2022/05/14 03:52:51;;;;;;;;;;;9.80;99.90;;;;;;4936529;29;19927;-70
2022/05/14 03:55:17;;;;;;;;;;;9.80;99.90;;;;;;4918968;29;20678;-70
2022/05/14 03:57:42;;;;;;;;;;;10.60;99.90;;;;;;4938519;29;19927;-70
2022/05/14 04:00:11;;;;;;;;;;;9.80;99.90;;;;;;4920739;29;19923;-70
2022/05/14 04:02:36;;;;;;;;;;;9.80;99.90;;;;;;4937089;29;20282;-70
2022/05/14 04:05:02;;;;;;;;;;;9.80;99.90;;;;;;4937018;29;19977;-70
2022/05/14 04:07:28;;;;;;;;;;;9.90;99.90;;;;;;4919174;29;20029;-70
2022/05/14 04:09:53;;;;;;;;;;;9.90;99.90;;;;;;4918960;29;20332;-72
2022/05/14 04:12:19;;;;;;;;;;;9.90;99.90;;;;;;4923716;29;19970;-70
2022/05/14 04:14:44;;;;;;;;;;;9.90;99.90;;;;;;4899992;29;19923;-71
2022/05/14 04:17:10;;;;;;;;;;;10.00;99.90;;;;;;4911507;29;19923;-71
2022/05/14 04:19:38;;;;;;;;;;;10.00;99.90;;;;;;4898442;29;19923;-71
2022/05/14 04:22:04;;;;;;;;;;;10.00;99.90;;;;;;4901619;29;19923;-71
2022/05/14 04:24:32;;;;;;;;;;;10.10;99.90;;;;;;4915910;29;20294;-70
2022/05/14 04:26:58;;;;;;;;;;;10.10;99.90;;;;;;4900188;29;19927;-71
2022/05/14 04:29:24;;;;;;;;;;;10.20;99.90;;;;;;4897346;29;19932;-71
2022/05/14 04:31:49;;;;;;;;;;;10.10;99.90;;;;;;4894588;29;19977;-70
2022/05/14 04:34:15;;;;;;;;;;;10.20;99.90;;;;;;4901024;29;19923;-70
2022/05/14 04:36:40;;;;;;;;;;;10.20;99.90;;;;;;4878733;29;20328;-70
2022/05/14 04:39:06;;;;;;;;;;;10.40;99.90;;;;;;4894788;29;19923;-69
2022/05/14 04:41:31;;;;;;;;;;;10.40;99.90;;;;;;4897402;29;19924;-69
2022/05/14 04:43:58;;;;;;;;;;;10.40;99.90;;;;;;4897031;29;19923;-70
2022/05/14 04:46:24;;;;;;;;;;;10.50;99.90;;;;;;4894562;29;19950;-70
2022/05/14 04:48:55;;;;;;;;;;;10.60;99.90;;;;;;4880367;29;19966;-70
2022/05/14 04:51:21;;;;;;;;;;;10.60;99.90;;;;;;4899589;29;19924;-71
2022/05/14 04:53:46;;;;;;;;;;;10.70;99.90;;;;;;4902211;29;20283;-71
2022/05/14 04:56:12;;;;;;;;;;;10.70;99.90;;;;;;4896203;29;19976;-71
2022/05/14 04:58:37;;;;;;;;;;;10.70;99.90;;;;;;4898422;29;19924;-71
2022/05/14 05:01:03;;;;;;;;;;;10.70;99.90;;;;;;4897865;29;20319;-71
2022/05/14 05:03:28;;;;;;;;;;;10.70;99.90;;;;;;4898256;29;19923;-72
2022/05/14 05:05:55;;;;;;;;;;;10.80;99.90;;;;;;4882749;29;19923;-71
2022/05/14 05:08:24;;;;;;;;;;;11.40;99.90;;;;;;4911002;29;19961;-71
2022/05/14 05:10:51;;;;;;;;;;;10.90;99.90;;;;;;4918165;29;19923;-72
2022/05/14 05:13:18;;;;;;;;;;;10.90;99.90;;;;;;4898359;29;20277;-70
2022/05/14 05:15:43;;;;;;;;;;;11.30;99.90;;;;;;4917015;29;19958;-71
2022/05/14 05:18:09;;;;;;;;;;;11.10;99.90;;;;;;4930970;29;19930;-71
2022/05/14 05:20:35;;;;;;;;;;;11.10;99.90;;;;;;4918171;29;20005;-71
2022/05/14 05:23:01;;;;;;;;;;;11.20;99.90;;;;;;4918071;29;19927;-71
2022/05/14 05:25:27;;;;;;;;;;;11.20;99.90;;;;;;4921298;29;20398;-70
2022/05/14 05:27:53;;;;;;;;;;;11.20;99.90;;;;;;4923504;29;19930;-70
2022/05/14 05:30:18;;;;;;;;;;;11.30;99.90;;;;;;4941035;29;20061;-70
2022/05/14 05:32:47;;;;;;;;;;;11.30;99.90;;;;;;4940770;29;20363;-70
2022/05/14 05:35:12;;;;;;;;;;;11.40;99.90;;;;;;4937909;29;19923;-70
2022/05/14 05:37:41;;;;;;;;;;;11.40;99.90;;;;;;4921262;29;19929;-70
2022/05/14 05:40:07;;;;;;;;;;;11.50;99.90;;;;;;4938684;29;19974;-69
2022/05/14 05:42:32;;;;;;;;;;;11.60;99.90;;;;;;4937786;29;19989;-69
2022/05/14 05:44:58;;;;;;;;;;;11.70;99.90;;;;;;4922516;29;19929;-70
2022/05/14 05:47:24;;;;;;;;;;;11.80;99.90;;;;;;4939884;29;19922;-70
2022/05/14 05:49:49;;;;;;;;;;;11.90;99.90;;;;;;4939357;29;19923;-70
2022/05/14 05:52:15;;;;;;;;;;;12.10;99.90;;;;;;4938170;29;19982;-70
2022/05/14 05:57:32;;;;;;;;;;;12.30;99.90;;;;;;4938215;29;19923;-70
2022/05/14 05:59:58;;;;;;;;;;;12.50;99.90;;;;;;4938486;29;20345;-70
2022/05/14 06:02:23;;;;;;;;;;;12.60;99.90;;;;;;4939467;29;20087;-70
2022/05/14 06:04:49;;;;;;;;;;;12.60;99.90;;;;;;4921992;29;19946;-69
2022/05/14 06:07:17;;;;;;;;;;;12.70;99.90;;;;;;4937114;29;20366;-70
2022/05/14 06:09:47;;;;;;;;;;;12.80;99.90;;;;;;4937553;29;19931;-69
2022/05/14 06:12:12;;;;;;;;;;;12.90;99.90;;;;;;4937687;29;19923;-70
2022/05/14 06:14:39;;;;;;;;;;;13.00;99.90;;;;;;4932379;29;19929;-69
2022/05/14 06:17:05;;;;;;;;;;;13.00;99.90;;;;;;4937863;29;19923;-70
2022/05/14 06:19:30;;;;;;;;;;;13.10;99.90;;;;;;4922665;29;20010;-71
2022/05/14 06:21:56;;;;;;;;;;;13.20;99.90;;;;;;4939363;29;20007;-71
2022/05/14 06:24:24;;;;;;;;;;;13.30;99.90;;;;;;4921039;29;19922;-71
2022/05/14 06:26:49;;;;;;;;;;;13.40;99.90;;;;;;4921403;29;19950;-70
2022/05/14 06:29:15;;;;;;;;;;;13.50;99.90;;;;;;4939300;29;19966;-70
2022/05/14 06:31:40;;;;;;;;;;;13.60;99.90;;;;;;4938669;29;19922;-70
2022/05/14 06:34:06;;;;;;;;;;;13.70;99.90;;;;;;4921865;29;19957;-69
2022/05/14 06:36:33;;;;;;;;;;;13.70;99.90;;;;;;4939637;29;19923;-70
2022/05/14 06:38:59;;;;;;;;;;;13.80;99.90;;;;;;4921069;29;20271;-70
2022/05/14 06:41:25;;;;;;;;;;;13.80;99.90;;;;;;4901675;29;19930;-69
2022/05/14 06:43:50;;;;;;;;;;;13.90;99.90;;;;;;4917961;29;20395;-70
2022/05/14 06:46:16;;;;;;;;;;;13.90;99.90;;;;;;4918597;29;20389;-70
2022/05/14 06:48:42;;;;;;;;;;;14.00;99.90;;;;;;4903211;29;19923;-70
2022/05/14 06:51:14;;;;;;;;;;;14.10;99.90;;;;;;4918958;29;19927;-70
2022/05/14 06:53:40;;;;;;;;;;;14.10;99.90;;;;;;4918453;29;19989;-70
2022/05/14 06:56:06;;;;;;;;;;;14.30;99.90;;;;;;4903034;29;19974;-69
2022/05/14 06:58:35;;;;;;;;;;;14.30;99.90;;;;;;4901033;29;20013;-70
2022/05/14 07:01:01;;;;;;;;;;;14.50;99.90;;;;;;4902015;29;19923;-70
2022/05/14 07:08:55;;;;;;;;;;;14.70;99.90;;;;;;4919772;29;20001;-69
2022/05/14 07:11:21;;;;;;;;;;;14.90;99.90;;;;;;4938349;29;19981;-72
2022/05/14 07:13:52;;;;;;;;;;;15.00;99.90;;;;;;4932313;29;19927;-70
2022/05/14 07:16:18;;;;;;;;;;;15.10;99.90;;;;;;4919795;29;20367;-71
2022/05/14 07:18:43;;;;;;;;;;;15.20;99.90;;;;;;4904336;29;19926;-70
2022/05/14 07:21:12;;;;;;;;;;;15.40;99.90;;;;;;4900834;29;19978;-69
2022/05/14 07:23:38;;;;;;;;;;;15.60;99.90;;;;;;4917995;29;19958;-69
2022/05/14 07:26:07;;;;;;;;;;;15.90;99.90;;;;;;4932486;29;19954;-71
2022/05/14 07:28:37;;;;;;;;;;;16.70;99.90;;;;;;4936987;29;19947;-72
2022/05/14 07:31:03;;;;;;;;;;;17.70;99.90;;;;;;4938816;29;19970;-71
2022/05/14 07:33:30;;;;;;;;;;;18.50;99.90;;;;;;4936678;29;20036;-70
2022/05/14 07:36:05;;;;;;;;;;;19.30;99.90;;;;;;4939175;29;19922;-70
2022/05/14 07:38:32;;;;;;;;;;;20.00;99.90;;;;;;4937164;29;19922;-73
2022/05/14 07:40:58;;;;;;;;;;;20.70;99.90;;;;;;4937701;29;19922;-75
2022/05/14 07:43:26;;;;;;;;;;;21.20;99.90;;;;;;4929695;29;20018;-72
2022/05/14 07:45:54;;;;;;;;;;;21.70;98.80;;;;;;4918707;29;19923;-71
2022/05/14 07:48:22;;;;;;;;;;;22.40;97.60;;;;;;4918662;29;20454;-72
2022/05/14 07:50:49;;;;;;;;;;;22.80;96.70;;;;;;4920307;29;19923;-78
2022/05/14 07:53:42;;;;;;;;;;;23.30;96.40;;;;;;4913390;23;20326;-75
2022/05/14 07:56:09;;;;;;;;;;;23.40;95.50;;;;;;4948121;29;19923;-74
2022/05/14 07:58:36;;;;;;;;;;;24.00;95.00;;;;;;4921500;29;20358;-76
2022/05/14 08:01:04;;;;;;;;;;;24.00;93.80;;;;;;4938136;29;19930;-76
2022/05/14 08:03:30;;;;;;;;;;;23.60;93.10;;;;;;4956970;29;19922;-75
2022/05/14 08:05:56;;;;;;;;;;;24.40;92.70;;;;;;4926470;29;19969;-74
2022/05/14 08:08:22;;;;;;;;;;;24.40;92.60;;;;;;4942339;29;19930;-73
2022/05/14 08:10:51;;;;;;;;;;;24.50;93.00;;;;;;4938010;29;20481;-72
2022/05/14 08:13:17;;;;;;;;;;;24.50;92.30;;;;;;4929638;29;19933;-72
2022/05/14 08:15:44;;;;;;;;;;;24.70;92.50;;;;;;4947478;29;20013;-70
2022/05/14 08:18:09;;;;;;;;;;;24.50;91.50;;;;;;4940774;29;19922;-70
2022/05/14 08:20:35;;;;;;;;;;;24.90;91.90;;;;;;4942482;29;19923;-71
2022/05/14 08:25:45;;;;;;;;;;;25.50;91.20;;;;;;4927669;29;19938;-71
2022/05/14 08:28:13;;;;;;;;;;;25.10;90.20;;;;;;4926742;29;19947;-71
2022/05/14 08:30:39;;;;;;;;;;;25.20;91.10;;;;;;4936015;29;19930;-71
2022/05/14 08:33:06;;;;;;;;;;;25.70;90.60;;;;;;4944234;29;20378;-71
2022/05/14 08:35:31;;;;;;;;;;;25.70;91.10;;;;;;4926300;29;19922;-72
2022/05/14 08:37:57;;;;;;;;;;;25.90;90.20;;;;;;4936905;29;19926;-71
2022/05/14 08:40:28;;;;;;;;;;;25.70;90.00;;;;;;4941917;29;19962;-71
2022/05/14 08:42:55;;;;;;;;;;;25.50;90.20;;;;;;4931292;29;20430;-70
2022/05/14 08:45:22;;;;;;;;;;;25.50;90.10;;;;;;4927955;29;19930;-71
2022/05/14 08:47:56;;;;;;;;;;;25.10;91.10;;;;;;4935274;29;19923;-70
2022/05/14 08:50:28;;;;;;;;;;;25.40;90.50;;;;;;4931649;29;19944;-70
2022/05/14 08:53:00;;;;;;;;;;;25.80;90.80;;;;;;4955274;29;19970;-73
2022/05/14 08:55:27;;;;;;;;;;;25.90;89.50;;;;;;4953882;29;19929;-71
2022/05/14 08:58:01;;;;;;;;;;;26.40;88.30;;;;;;4954779;29;19942;-71
2022/05/14 09:00:26;;;;;;;;;;;26.50;88.20;;;;;;4956246;29;19945;-71
2022/05/14 09:02:53;;;;;;;;;;;26.40;90.10;;;;;;4956927;29;20370;-72
2022/05/14 09:05:24;;;;;;;;;;;26.50;88.60;;;;;;4952188;29;20005;-72
2022/05/14 09:07:50;;;;;;;;;;;26.50;86.00;;;;;;4955538;29;19974;-71
2022/05/14 09:10:22;;;;;;;;;;;26.60;89.30;;;;;;4954923;29;20279;-71
2022/05/14 09:12:57;;;;;;;;;;;26.80;86.00;;;;;;4954105;29;20358;-71
2022/05/14 09:15:24;;;;;;;;;;;26.90;87.30;;;;;;4938090;29;20362;-71
2022/05/14 09:18:01;;;;;;;;;;;27.30;84.20;;;;;;4938871;29;19981;-71
2022/05/14 09:20:26;;;;;;;;;;;27.10;83.80;;;;;;4955206;29;19922;-71
2022/05/14 09:22:53;;;;;;;;;;;27.40;84.40;;;;;;4938730;29;20417;-71
2022/05/14 09:25:19;;;;;;;;;;;27.40;84.40;;;;;;4954600;29;19952;-71
2022/05/14 09:27:44;;;;;;;;;;;27.60;83.20;;;;;;4936469;29;19933;-74
2022/05/14 09:30:12;;;;;;;;;;;27.70;83.40;;;;;;4937167;29;19922;-71
2022/05/14 09:32:43;;;;;;;;;;;27.40;82.10;;;;;;4954297;29;19922;-71
2022/05/14 09:35:14;;;;;;;;;;;27.60;83.50;;;;;;4936079;29;19930;-71
2022/05/14 09:37:41;;;;;;;;;;;27.50;80.30;;;;;;4936485;29;20317;-71
2022/05/14 09:40:19;;;;;;;;;;;27.60;83.20;;;;;;4953432;29;20013;-71
2022/05/14 09:42:47;;;;;;;;;;;27.60;81.10;;;;;;4937539;29;20296;-72
2022/05/14 09:45:28;;;;;;;;;;;27.10;82.90;;;;;;4936906;29;20000;-71
2022/05/14 09:47:54;;;;;;;;;;;27.60;83.70;;;;;;4937910;29;19922;-72
2022/05/14 09:50:29;;;;;;;;;;;27.70;80.60;;;;;;4954549;29;19938;-69
2022/05/14 09:52:59;;;;;;;;;;;27.60;82.90;;;;;;4947897;29;19969;-69
2022/05/14 09:55:29;;;;;;;;;;;27.70;81.70;;;;;;4954036;29;19933;-69
2022/05/14 09:58:04;;;;;;;;;;;27.80;82.70;;;;;;4953750;29;19926;-69
2022/05/14 10:00:36;;;;;;;;;;;28.10;82.50;;;;;;4936789;29;19922;-70
2022/05/14 10:03:08;;;;;;;;;;;28.20;78.00;;;;;;4954064;29;19958;-69
2022/05/14 10:05:50;;;;;;;;;;;28.30;80.60;;;;;;4937229;29;19922;-69
2022/05/14 10:08:21;;;;;;;;;;;28.40;81.20;;;;;;4952672;29;20013;-70
2022/05/14 10:10:46;;;;;;;;;;;28.40;80.30;;;;;;4923217;29;19926;-73
2022/05/14 10:13:23;;;;;;;;;;;28.20;80.30;;;;;;4937025;29;19929;-72
2022/05/14 10:15:49;;;;;;;;;;;28.40;80.80;;;;;;4920888;29;19923;-72
2022/05/14 10:18:33;;;;;;;;;;;28.70;77.80;;;;;;4921316;29;19969;-71
2022/05/14 10:21:11;;;;;;;;;;;28.60;78.10;;;;;;4939306;29;20382;-71
2022/05/14 10:26:46;;;;;;;;;;;28.80;75.90;;;;;;4957248;29;19926;-72
2022/05/14 10:29:31;;;;;;;;;;;28.50;78.30;;;;;;4957192;29;19922;-71
2022/05/14 10:32:01;;;;;;;;;;;28.50;76.60;;;;;;4955680;29;19923;-71
2022/05/14 10:34:40;;;;;;;;;;;28.20;76.70;;;;;;4957493;29;19926;-71
2022/05/14 10:37:24;;;;;;;;;;;27.80;77.20;;;;;;4940004;29;19926;-71
2022/05/14 10:39:55;;;;;;;;;;;27.70;77.20;;;;;;4957579;29;19922;-71
2022/05/14 10:42:24;;;;;;;;;;;28.00;77.30;;;;;;4950251;29;19922;-71
2022/05/14 10:44:51;;;;;;;;;;;28.20;75.70;;;;;;4939309;29;20063;-71
2022/05/14 10:47:19;;;;;;;;;;;28.20;77.00;;;;;;4956609;29;19930;-71
2022/05/14 10:50:04;;;;;;;;;;;28.20;77.20;;;;;;4956300;29;19993;-71
2022/05/14 10:52:30;;;;;;;;;;;28.40;75.20;;;;;;4938591;29;19958;-71
2022/05/14 10:54:57;;;;;;;;;;;28.30;78.50;;;;;;4956306;29;19922;-70
2022/05/14 10:57:23;;;;;;;;;;;28.20;77.60;;;;;;4956174;29;19929;-72
2022/05/14 10:59:52;;;;;;;;;;;28.20;77.80;;;;;;4939737;29;20013;-71
2022/05/14 11:02:25;;;;;;;;;;;27.80;75.60;;;;;;4956808;29;19965;-71
2022/05/14 11:04:51;;;;;;;;;;;27.70;76.60;;;;;;4957109;29;19922;-70
2022/05/14 11:07:29;;;;;;;;;;;28.00;78.00;;;;;;4957951;29;19923;-71
2022/05/14 11:10:05;;;;;;;;;;;27.90;78.60;;;;;;4940662;29;19954;-70
2022/05/14 11:12:32;;;;;;;;;;;27.80;76.30;;;;;;4957728;29;19923;-71
2022/05/14 11:14:59;;;;;;;;;;;28.00;76.40;;;;;;4941284;29;20309;-71
2022/05/14 11:17:32;;;;;;;;;;;27.50;74.00;;;;;;4941834;29;20306;-70
2022/05/14 11:20:04;;;;;;;;;;;27.70;76.70;;;;;;4958682;28;19923;-71
2022/05/14 11:22:32;;;;;;;;;;;27.60;75.80;;;;;;4940801;29;19922;-71
2022/05/14 11:25:21;;;;;;;;;;;27.50;75.60;;;;;;4940801;29;19922;-71
2022/05/14 11:27:55;;;;;;;;;;;27.30;75.20;;;;;;4939649;29;19954;-70
2022/05/14 11:30:41;;;;;;;;;;;27.50;77.60;;;;;;4940135;29;19922;-71
2022/05/14 11:33:22;;;;;;;;;;;27.40;77.20;;;;;;4939362;29;20001;-72
2022/05/14 11:35:49;;;;;;;;;;;27.40;76.90;;;;;;4940105;29;19923;-70
2022/05/14 11:38:30;;;;;;;;;;;27.30;75.70;;;;;;4956559;29;19922;-71
2022/05/14 11:40:55;;;;;;;;;;;27.30;76.40;;;;;;4938915;29;20298;-71
2022/05/14 11:43:27;;;;;;;;;;;26.70;76.20;;;;;;4956307;29;19922;-71
2022/05/14 11:46:11;;;;;;;;;;;26.50;76.10;;;;;;4957336;29;19922;-72
2022/05/14 11:48:49;;;;;;;;;;;26.50;77.20;;;;;;4938668;29;19922;-72
2022/05/14 11:51:18;;;;;;;;;;;26.40;76.70;;;;;;4937650;29;19922;-71
2022/05/14 11:53:48;;;;;;;;;;;26.30;78.40;;;;;;4921332;29;19922;-69
2022/05/14 11:56:18;;;;;;;;;;;26.30;76.90;;;;;;4931697;29;20423;-70
2022/05/14 11:58:51;;;;;;;;;;;26.10;76.50;;;;;;4931310;29;19922;-69
2022/05/14 12:01:20;;;;;;;;;;;26.10;77.00;;;;;;4924727;29;19923;-71
2022/05/14 12:03:46;;;;;;;;;;;26.30;77.90;;;;;;4936388;29;19927;-71
2022/05/14 12:06:50;;;;;;;;;;;26.50;78.90;;;;;;4936113;29;19930;-72
2022/05/14 12:09:34;;;;;;;;;;;26.50;76.80;;;;;;4905059;29;19922;-72
2022/05/14 12:12:11;;;;;;;;;;;26.20;77.20;;;;;;4937035;29;20391;-72
2022/05/14 12:14:37;;;;;;;;;;;26.10;76.90;;;;;;4917045;29;19929;-73
2022/05/14 12:17:04;;;;;;;;;;;26.10;77.50;;;;;;4938021;29;19923;-71
2022/05/14 12:19:33;;;;;;;;;;;25.50;76.60;;;;;;4938266;29;19975;-73
2022/05/14 12:22:01;;;;;;;;;;;25.60;78.80;;;;;;4945711;29;19964;-72
2022/05/14 12:24:32;;;;;;;;;;;25.60;80.00;;;;;;4953693;29;19930;-72
2022/05/14 12:26:58;;;;;;;;;;;25.80;78.70;;;;;;4937717;29;19926;-72
2022/05/14 12:29:35;;;;;;;;;;;26.00;79.70;;;;;;4955617;29;19929;-73
2022/05/14 12:34:45;;;;;;;;;;;25.60;77.30;;;;;;4951511;29;19969;-71
2022/05/14 12:37:16;;;;;;;;;;;25.80;79.70;;;;;;4931201;29;19957;-71
2022/05/14 12:39:42;;;;;;;;;;;25.80;79.70;;;;;;4940330;29;19923;-71
2022/05/14 12:42:09;;;;;;;;;;;25.40;81.70;;;;;;4944157;29;19958;-72
2022/05/14 12:44:35;;;;;;;;;;;25.20;79.10;;;;;;4945438;29;19935;-70
2022/05/14 12:47:03;;;;;;;;;;;24.90;79.10;;;;;;4944205;29;19953;-70
2022/05/14 12:49:30;;;;;;;;;;;24.50;82.80;;;;;;4930364;29;19923;-70
2022/05/14 12:51:57;;;;;;;;;;;24.80;81.50;;;;;;4925688;29;20393;-71
2022/05/14 12:54:28;;;;;;;;;;;24.90;81.50;;;;;;4912815;29;19977;-71
2022/05/14 12:56:55;;;;;;;;;;;25.20;80.50;;;;;;4939866;29;19929;-71
2022/05/14 12:59:21;;;;;;;;;;;25.00;79.80;;;;;;4934962;29;19958;-70
2022/05/14 13:01:48;;;;;;;;;;;24.70;79.80;;;;;;4932070;29;19930;-72
2022/05/14 13:04:15;;;;;;;;;;;24.80;80.00;;;;;;4916194;29;19930;-71
2022/05/14 13:06:45;;;;;;;;;;;24.90;81.10;;;;;;4931081;29;20037;-70
2022/05/14 13:09:11;;;;;;;;;;;25.10;81.00;;;;;;4935266;29;19923;-71
2022/05/14 13:11:44;;;;;;;;;;;25.00;78.20;;;;;;4943668;29;20426;-70
2022/05/14 13:14:10;;;;;;;;;;;24.90;79.10;;;;;;4923127;29;20540;-70
2022/05/14 13:16:35;;;;;;;;;;;24.90;79.20;;;;;;4934397;29;20009;-72
2022/05/14 13:19:04;;;;;;;;;;;24.90;79.50;;;;;;4933879;29;20014;-68
2022/05/14 13:21:33;;;;;;;;;;;24.60;80.00;;;;;;4937597;29;20442;-73
2022/05/14 13:24:03;;;;;;;;;;;24.50;78.90;;;;;;4921767;29;19930;-72
2022/05/14 13:26:43;;;;;;;;;;;24.80;79.70;;;;;;4933343;29;19938;-73
2022/05/14 13:29:11;;;;;;;;;;;24.90;80.50;;;;;;5575181;23;19926;-70
2022/05/14 13:31:36;;;;;;;;;;;25.00;79.40;;;;;;4919548;29;19927;-69
2022/05/14 13:37:07;;;;;;;;;;;25.30;80.20;;;;;;4932192;29;20010;-69
2022/05/14 13:37:09;;;;;;;;;;;25.00;78.60;;;;;;4935193;29;19927;-71
2022/05/14 13:39:51;;;;;;;;;;;24.80;80.30;;;;;;4918442;29;20014;-71
2022/05/14 13:42:21;;;;;;;;;;;24.90;78.50;;;;;;4916401;29;19974;-70
2022/05/14 13:44:49;;;;;;;;;;;24.90;79.00;;;;;;4918621;29;19923;-71
2022/05/14 13:47:19;;;;;;;;;;;24.70;78.50;;;;;;4923515;29;19931;-72
2022/05/14 13:49:49;;;;;;;;;;;24.80;77.80;;;;;;4938237;29;19986;-71
2022/05/14 13:52:23;;;;;;;;;;;24.70;78.20;;;;;;4937686;29;19946;-69
2022/05/14 13:54:59;;;;;;;;;;;24.70;79.90;;;;;;4943697;29;19933;-69
2022/05/14 13:57:25;;;;;;;;;;;24.80;79.90;;;;;;4935073;29;19931;-68
2022/05/14 14:00:01;;;;;;;;;;;24.60;80.30;;;;;;4939470;29;19923;-73
2022/05/14 14:02:28;;;;;;;;;;;24.70;80.20;;;;;;4938500;29;19923;-72
2022/05/14 14:05:02;;;;;;;;;;;24.80;80.70;;;;;;4932365;29;19977;-71
2022/05/14 14:07:28;;;;;;;;;;;24.50;80.70;;;;;;4936302;29;19942;-68
2022/05/14 14:09:54;;;;;;;;;;;24.70;81.00;;;;;;4939163;29;20313;-67
2022/05/14 14:12:23;;;;;;;;;;;24.90;81.50;;;;;;4937424;29;20442;-69
2022/05/14 14:14:49;;;;;;;;;;;25.00;80.00;;;;;;4936800;29;19927;-68
2022/05/14 14:17:15;;;;;;;;;;;25.00;80.10;;;;;;4935832;29;19930;-67
2022/05/14 14:19:43;;;;;;;;;;;24.70;78.80;;;;;;4939060;29;19981;-67
2022/05/14 14:22:12;;;;;;;;;;;24.90;79.10;;;;;;4947154;29;20446;-66
2022/05/14 14:24:41;;;;;;;;;;;24.80;78.90;;;;;;4935736;29;19931;-67
2022/05/14 14:27:10;;;;;;;;;;;24.80;79.30;;;;;;4933678;29;20078;-69
2022/05/14 14:29:36;;;;;;;;;;;24.10;80.50;;;;;;4934193;29;19930;-70
2022/05/14 14:32:01;;;;;;;;;;;23.90;80.30;;;;;;4922474;29;19922;-70
2022/05/14 14:34:30;;;;;;;;;;;24.10;80.90;;;;;;4929978;29;20721;-72
2022/05/14 14:36:58;;;;;;;;;;;24.10;82.30;;;;;;4931268;29;19922;-70
2022/05/14 14:39:24;;;;;;;;;;;24.20;81.60;;;;;;4932120;29;19926;-70
2022/05/14 14:41:50;;;;;;;;;;;24.30;81.20;;;;;;4913323;29;19931;-70
2022/05/14 14:44:18;;;;;;;;;;;24.20;83.10;;;;;;4920190;29;20386;-70
2022/05/14 14:46:45;;;;;;;;;;;24.20;81.70;;;;;;4904167;29;20009;-69
2022/05/14 14:49:14;;;;;;;;;;;24.20;81.20;;;;;;4937448;29;19930;-71